This is the latest recevied weather packets stored in our database for station/object KD7YDD. If no packets are shown the sender has not sent any weather packets the latest 10 day(s).
| Time | Temp. | Humidity | Pressure | Rain* | Wind** | Luminosity | Snow |
|---|---|---|---|---|---|---|---|
| 1777932076 | 13.89° C | 82% | 1015.8 hPa | 0.25 mm | - | 21 W/m² | - |
| 1777924277 | 17.22° C | 71% | 1015.7 hPa | 0 mm | - | 86 W/m² | - |
| 1777915877 | 15° C | 75% | 1015.5 hPa | 0 mm | - | 114 W/m² | - |
| 1777911677 | 11.67° C | 92% | 1015.5 hPa | 0 mm | - | 49 W/m² | - |
| 1777908078 | 10° C | 91% | 1015.6 hPa | 0 mm | - | 56 W/m² | - |
| 1777905697 | 8.89° C | 91% | 1015.5 hPa | 0 mm | - | 40 W/m² | - |
| 1777904477 | 8.33° C | 90% | 1015.5 hPa | 0 mm | - | 28 W/m² | - |
| 1777902697 | 7.78° C | 90% | 1015.5 hPa | 0 mm | - | 11 W/m² | - |
| 1777902077 | 8.33° C | 89% | 1015.6 hPa | 0 mm | - | 5 W/m² | - |
| 1777901480 | 7.78° C | 89% | 1015.5 hPa | 0 mm | - | 0 W/m² | - |
| 1777900276 | 8.33° C | 89% | 1015.4 hPa | 0 mm | - | 0 W/m² | - |
| 1777897281 | 8.33° C | 89% | 1015.1 hPa | 0 mm | - | 0 W/m² | - |
| 1777896677 | 8.89° C | 89% | 1015.1 hPa | 0 mm | - | 0 W/m² | - |
| 1777895476 | 8.89° C | 89% | 1014.8 hPa | 0 mm | - | 0 W/m² | - |
| 1777893676 | 8.89° C | 88% | 1014.8 hPa | 0 mm | - | 0 W/m² | - |
| 1777890698 | 10° C | 87% | 1014.8 hPa | 0 mm | - | 0 W/m² | - |
| 1777882296 | 11.67° C | 87% | 1015 hPa | 0 mm | - | 0 W/m² | - |
| 1777878076 | 11.67° C | 86% | 1015.1 hPa | 0 mm | - | 0 W/m² | - |
| 1777873278 | 11.67° C | 85% | 1015.3 hPa | 0 mm | - | 0 W/m² | - |
| 1777870876 | 12.22° C | 84% | 1015.2 hPa | 0 mm | - | 0 W/m² | - |
| 1777863676 | 13.33° C | 80% | 1013.7 hPa | 0 mm | - | 0 W/m² | - |
| 1777861876 | 13.89° C | 78% | 1013.6 hPa | 0 mm | - | 5 W/m² | - |
| 1777861300 | 13.89° C | 78% | 1013.5 hPa | 0 mm | - | 5 W/m² | - |
| 1777858877 | 14.44° C | 75% | 1013.6 hPa | 0 mm | - | 32 W/m² | - |
| 1777856476 | 15° C | 75% | 1013.6 hPa | 0 mm | - | 34 W/m² | - |
* Rain latest hour (hover to see other rain measurements)
** Current wind speed in m/s (hover to see current wind gust speed)